Denham Springs, Louisiana
Current Conditions -  °F | °C
As of 10:53 AM on Thursday 27 Nov 2014 (Local Time) from KBTR Reporting Station
Clear Clear  
Wind Chill: 56°   Ceiling: Unl
Heat Index: 56°   Visibility: 10mi
Dew Point: 30°   Wind: 9mph
Humidity: 37%   Direction: 360°N
Pressure: 30.46"   Gusts: NA
Location:  30.49°N, 90.95°W
Report Text: KBTR 271653Z 36008KT 10SM CLR 13/M01 A3046 RMK AO2 SLP313 T01331011
Loading
Personal Weather Stations






























Interactive Weather Map New forecast layout! Learn more

10-Day Weather Forecast

Advertisements
Track Severe Weather on mobile